ナンディ の空港の天気 - METARとTAF

ナンディ国際空港 ( NFFN / NAN ) - フィジー ナンディ (ビティレブ島)
飛行場実況気象(Metar)
観測時間10/20 16:00 FJT (10/20 04:00 UTC)
風向・風速西北西 6m/s
視程10km以上
天気現象
少しの雲 雲底高度 910m
気温29℃
湿度66%
気圧1012hPa
METARNFFN 200400Z 30011KT 9999 FEW030TCU 29/22 Q1012 NOSIG
過去の天気等 Google飛行場航空写真 Wunderground天気予報

過去48時間のMETAR

飛行場予報(TAF)
発表時間: 10/20 11:05 FJT (10/19 23:05 UTC)
予報対象時間: 20日12時 FJT ~ 21日12時 FJT
風向・風速西北西 5m/s
視程10km以上
全天の4割程度の雲 雲底高度 760m
全天の4割程度の雲 雲底高度 1370m
20日16時 FJT ~ 20日18時 FJT に徐々に
風向・風速東 4m/s
21日10時 FJT ~ 21日12時 FJT に徐々に
風向・風速西北西 5m/s
TAF NFFN 192305Z 2000/2024 29010KT 9999 SCT025 SCT045
BECMG 2004/2006 10007KT
BECMG 2022/2024 29010KT